sensor_id;sensor_type;location;lat;lon;timestamp;temperature;humidity
4596;DHT22;2310;49.978;8.742;2023-04-15T00:03:41;9.30;99.90
4596;DHT22;2310;49.978;8.742;2023-04-15T00:07:43;9.20;99.90
4596;DHT22;2310;49.978;8.742;2023-04-15T00:11:46;9.20;99.90
4596;DHT22;2310;49.978;8.742;2023-04-15T00:15:48;9.30;99.90
4596;DHT22;2310;49.978;8.742;2023-04-15T00:19:49;9.20;99.90
4596;DHT22;2310;49.978;8.742;2023-04-15T00:23:50;9.10;99.90
4596;DHT22;2310;49.978;8.742;2023-04-15T00:27:54;9.10;99.90
4596;DHT22;2310;49.978;8.742;2023-04-15T00:31:55;9.10;99.90
4596;DHT22;2310;49.978;8.742;2023-04-15T00:36:00;9.10;99.90
4596;DHT22;2310;49.978;8.742;2023-04-15T00:40:03;9.10;99.90
4596;DHT22;2310;49.978;8.742;2023-04-15T00:44:07;9.10;99.90
4596;DHT22;2310;49.978;8.742;2023-04-15T00:48:10;9.20;99.90
4596;DHT22;2310;49.978;8.742;2023-04-15T00:52:12;9.10;99.90
4596;DHT22;2310;49.978;8.742;2023-04-15T00:56:14;8.90;99.90
4596;DHT22;2310;49.978;8.742;2023-04-15T01:00:17;8.90;99.90
4596;DHT22;2310;49.978;8.742;2023-04-15T01:04:20;8.90;99.90
4596;DHT22;2310;49.978;8.742;2023-04-15T01:08:31;8.90;99.90
4596;DHT22;2310;49.978;8.742;2023-04-15T01:12:26;8.90;99.90
4596;DHT22;2310;49.978;8.742;2023-04-15T01:16:29;8.90;99.90
4596;DHT22;2310;49.978;8.742;2023-04-15T01:20:30;9.00;99.90
4596;DHT22;2310;49.978;8.742;2023-04-15T01:24:32;8.90;99.90
4596;DHT22;2310;49.978;8.742;2023-04-15T01:28:34;8.80;99.90
4596;DHT22;2310;49.978;8.742;2023-04-15T01:32:37;8.60;99.90
4596;DHT22;2310;49.978;8.742;2023-04-15T01:36:38;8.60;99.90
4596;DHT22;2310;49.978;8.742;2023-04-15T01:40:39;8.60;99.90
4596;DHT22;2310;49.978;8.742;2023-04-15T01:44:40;8.60;99.90
4596;DHT22;2310;49.978;8.742;2023-04-15T01:48:42;8.70;99.90
4596;DHT22;2310;49.978;8.742;2023-04-15T01:52:43;8.60;99.90
4596;DHT22;2310;49.978;8.742;2023-04-15T01:56:44;8.60;99.90
4596;DHT22;2310;49.978;8.742;2023-04-15T02:00:46;8.50;99.90
4596;DHT22;2310;49.978;8.742;2023-04-15T02:04:48;8.50;99.90
4596;DHT22;2310;49.978;8.742;2023-04-15T02:08:49;8.40;99.90
4596;DHT22;2310;49.978;8.742;2023-04-15T02:12:50;8.40;99.90
4596;DHT22;2310;49.978;8.742;2023-04-15T02:16:52;8.40;99.90
4596;DHT22;2310;49.978;8.742;2023-04-15T02:20:53;8.40;99.90
4596;DHT22;2310;49.978;8.742;2023-04-15T02:24:56;8.40;99.90
4596;DHT22;2310;49.978;8.742;2023-04-15T02:28:58;8.20;99.90
4596;DHT22;2310;49.978;8.742;2023-04-15T02:33:00;8.30;99.90
4596;DHT22;2310;49.978;8.742;2023-04-15T02:37:02;8.20;99.90
4596;DHT22;2310;49.978;8.742;2023-04-15T02:41:04;8.40;99.90
4596;DHT22;2310;49.978;8.742;2023-04-15T02:45:06;8.00;99.90
4596;DHT22;2310;49.978;8.742;2023-04-15T02:49:08;8.00;99.90
4596;DHT22;2310;49.978;8.742;2023-04-15T02:53:09;7.80;99.90
4596;DHT22;2310;49.978;8.742;2023-04-15T02:57:10;7.90;99.90
4596;DHT22;2310;49.978;8.742;2023-04-15T03:01:13;8.00;99.90
4596;DHT22;2310;49.978;8.742;2023-04-15T03:05:14;8.20;99.90
4596;DHT22;2310;49.978;8.742;2023-04-15T03:09:16;8.20;99.90
4596;DHT22;2310;49.978;8.742;2023-04-15T03:13:18;8.10;99.90
4596;DHT22;2310;49.978;8.742;2023-04-15T03:17:19;8.00;99.90
4596;DHT22;2310;49.978;8.742;2023-04-15T03:21:21;7.90;99.90
4596;DHT22;2310;49.978;8.742;2023-04-15T03:25:24;7.90;99.90
4596;DHT22;2310;49.978;8.742;2023-04-15T03:29:25;7.70;99.90
4596;DHT22;2310;49.978;8.742;2023-04-15T03:33:27;8.00;99.90
4596;DHT22;2310;49.978;8.742;2023-04-15T03:37:29;8.10;99.90
4596;DHT22;2310;49.978;8.742;2023-04-15T03:41:30;8.10;99.90
4596;DHT22;2310;49.978;8.742;2023-04-15T03:45:33;7.90;99.90
4596;DHT22;2310;49.978;8.742;2023-04-15T03:49:35;7.80;99.90
4596;DHT22;2310;49.978;8.742;2023-04-15T03:53:36;7.70;99.90
4596;DHT22;2310;49.978;8.742;2023-04-15T03:57:38;7.80;99.90
4596;DHT22;2310;49.978;8.742;2023-04-15T04:01:39;7.70;99.90
4596;DHT22;2310;49.978;8.742;2023-04-15T04:05:41;7.80;99.90
4596;DHT22;2310;49.978;8.742;2023-04-15T04:09:44;7.80;99.90
4596;DHT22;2310;49.978;8.742;2023-04-15T04:13:47;7.80;99.90
4596;DHT22;2310;49.978;8.742;2023-04-15T04:17:48;7.80;99.90
4596;DHT22;2310;49.978;8.742;2023-04-15T04:21:50;7.80;99.90
4596;DHT22;2310;49.978;8.742;2023-04-15T04:25:52;7.90;99.90
4596;DHT22;2310;49.978;8.742;2023-04-15T04:29:54;7.90;99.90
4596;DHT22;2310;49.978;8.742;2023-04-15T04:33:55;7.80;99.90
4596;DHT22;2310;49.978;8.742;2023-04-15T04:37:57;7.70;99.90
4596;DHT22;2310;49.978;8.742;2023-04-15T04:41:58;7.80;99.90
4596;DHT22;2310;49.978;8.742;2023-04-15T04:45:59;7.90;99.90
4596;DHT22;2310;49.978;8.742;2023-04-15T04:50:01;7.80;99.90
4596;DHT22;2310;49.978;8.742;2023-04-15T04:54:03;7.70;99.90
4596;DHT22;2310;49.978;8.742;2023-04-15T04:58:05;7.70;99.90
4596;DHT22;2310;49.978;8.742;2023-04-15T05:02:07;7.80;99.90
4596;DHT22;2310;49.978;8.742;2023-04-15T05:06:09;7.70;99.90
4596;DHT22;2310;49.978;8.742;2023-04-15T05:10:10;7.90;99.90
4596;DHT22;2310;49.978;8.742;2023-04-15T05:14:12;7.80;99.90
4596;DHT22;2310;49.978;8.742;2023-04-15T05:18:13;7.80;99.90
4596;DHT22;2310;49.978;8.742;2023-04-15T05:22:14;7.80;99.90
4596;DHT22;2310;49.978;8.742;2023-04-15T05:26:16;7.90;99.90
4596;DHT22;2310;49.978;8.742;2023-04-15T05:30:17;7.80;99.90
4596;DHT22;2310;49.978;8.742;2023-04-15T05:34:19;7.80;99.90
4596;DHT22;2310;49.978;8.742;2023-04-15T05:38:20;7.90;99.90
4596;DHT22;2310;49.978;8.742;2023-04-15T05:42:22;7.90;99.90
4596;DHT22;2310;49.978;8.742;2023-04-15T05:46:23;8.00;99.90
4596;DHT22;2310;49.978;8.742;2023-04-15T05:50:24;8.10;99.90
4596;DHT22;2310;49.978;8.742;2023-04-15T05:54:26;8.20;99.90
4596;DHT22;2310;49.978;8.742;2023-04-15T05:58:28;8.40;99.90
4596;DHT22;2310;49.978;8.742;2023-04-15T06:02:29;8.50;99.90
4596;DHT22;2310;49.978;8.742;2023-04-15T06:06:31;8.70;99.90
4596;DHT22;2310;49.978;8.742;2023-04-15T06:10:34;8.90;99.90
4596;DHT22;2310;49.978;8.742;2023-04-15T06:14:37;9.20;99.90
4596;DHT22;2310;49.978;8.742;2023-04-15T06:18:39;9.40;99.90
4596;DHT22;2310;49.978;8.742;2023-04-15T06:22:40;9.50;99.90
4596;DHT22;2310;49.978;8.742;2023-04-15T06:26:42;9.70;99.90
4596;DHT22;2310;49.978;8.742;2023-04-15T06:30:43;9.80;99.90
4596;DHT22;2310;49.978;8.742;2023-04-15T06:34:44;9.90;99.90
4596;DHT22;2310;49.978;8.742;2023-04-15T06:38:46;10.00;99.90
4596;DHT22;2310;49.978;8.742;2023-04-15T06:42:47;10.00;99.90
4596;DHT22;2310;49.978;8.742;2023-04-15T06:46:49;10.20;99.90
4596;DHT22;2310;49.978;8.742;2023-04-15T06:50:51;10.10;99.90
4596;DHT22;2310;49.978;8.742;2023-04-15T06:54:52;10.10;99.90
4596;DHT22;2310;49.978;8.742;2023-04-15T06:58:53;10.00;99.90
4596;DHT22;2310;49.978;8.742;2023-04-15T07:02:55;10.00;99.90
4596;DHT22;2310;49.978;8.742;2023-04-15T07:06:56;10.10;99.90
4596;DHT22;2310;49.978;8.742;2023-04-15T07:10:59;10.40;99.90
4596;DHT22;2310;49.978;8.742;2023-04-15T07:15:00;10.80;99.90
4596;DHT22;2310;49.978;8.742;2023-04-15T07:19:02;10.80;99.90
4596;DHT22;2310;49.978;8.742;2023-04-15T07:23:04;10.80;99.90
4596;DHT22;2310;49.978;8.742;2023-04-15T07:27:06;11.30;99.90
4596;DHT22;2310;49.978;8.742;2023-04-15T07:31:07;11.40;99.90
4596;DHT22;2310;49.978;8.742;2023-04-15T07:35:09;11.70;99.90
4596;DHT22;2310;49.978;8.742;2023-04-15T07:39:11;11.60;99.90
4596;DHT22;2310;49.978;8.742;2023-04-15T07:43:12;11.80;99.90
4596;DHT22;2310;49.978;8.742;2023-04-15T07:47:13;11.50;99.90
4596;DHT22;2310;49.978;8.742;2023-04-15T07:51:15;11.70;99.90
4596;DHT22;2310;49.978;8.742;2023-04-15T07:55:18;11.70;99.90
4596;DHT22;2310;49.978;8.742;2023-04-15T07:59:20;12.00;99.90
4596;DHT22;2310;49.978;8.742;2023-04-15T08:03:24;12.30;99.90
4596;DHT22;2310;49.978;8.742;2023-04-15T08:07:29;12.40;99.90
4596;DHT22;2310;49.978;8.742;2023-04-15T08:11:31;12.40;99.90
4596;DHT22;2310;49.978;8.742;2023-04-15T08:15:32;12.30;99.90
4596;DHT22;2310;49.978;8.742;2023-04-15T08:19:33;12.50;99.90
4596;DHT22;2310;49.978;8.742;2023-04-15T08:23:36;12.70;99.90
4596;DHT22;2310;49.978;8.742;2023-04-15T08:27:37;12.70;99.90
4596;DHT22;2310;49.978;8.742;2023-04-15T08:31:38;12.60;99.90
4596;DHT22;2310;49.978;8.742;2023-04-15T08:35:40;12.60;99.90
4596;DHT22;2310;49.978;8.742;2023-04-15T08:39:41;12.70;99.90
4596;DHT22;2310;49.978;8.742;2023-04-15T08:43:48;12.90;99.90
4596;DHT22;2310;49.978;8.742;2023-04-15T08:47:51;13.20;99.90
4596;DHT22;2310;49.978;8.742;2023-04-15T08:51:54;13.10;99.90
4596;DHT22;2310;49.978;8.742;2023-04-15T08:55:59;13.40;99.90
4596;DHT22;2310;49.978;8.742;2023-04-15T09:00:02;13.50;99.90
4596;DHT22;2310;49.978;8.742;2023-04-15T09:04:05;13.70;99.90
4596;DHT22;2310;49.978;8.742;2023-04-15T09:08:08;13.90;99.90
4596;DHT22;2310;49.978;8.742;2023-04-15T09:12:10;14.20;99.90
4596;DHT22;2310;49.978;8.742;2023-04-15T09:16:12;13.90;99.90
4596;DHT22;2310;49.978;8.742;2023-04-15T09:20:15;13.90;99.90
4596;DHT22;2310;49.978;8.742;2023-04-15T09:24:17;14.00;99.90
4596;DHT22;2310;49.978;8.742;2023-04-15T09:28:23;13.90;99.90
4596;DHT22;2310;49.978;8.742;2023-04-15T09:32:26;13.70;99.90
4596;DHT22;2310;49.978;8.742;2023-04-15T09:36:27;13.70;99.90
4596;DHT22;2310;49.978;8.742;2023-04-15T09:40:41;13.90;99.90
4596;DHT22;2310;49.978;8.742;2023-04-15T09:44:42;14.20;99.90
4596;DHT22;2310;49.978;8.742;2023-04-15T09:48:44;14.00;99.90
4596;DHT22;2310;49.978;8.742;2023-04-15T09:52:46;13.90;99.90
4596;DHT22;2310;49.978;8.742;2023-04-15T09:56:48;14.00;99.90
4596;DHT22;2310;49.978;8.742;2023-04-15T10:00:51;14.00;99.90
4596;DHT22;2310;49.978;8.742;2023-04-15T10:04:53;13.90;99.90
4596;DHT22;2310;49.978;8.742;2023-04-15T10:08:56;13.60;99.90
4596;DHT22;2310;49.978;8.742;2023-04-15T10:12:58;13.70;99.90
4596;DHT22;2310;49.978;8.742;2023-04-15T10:17:01;13.60;99.90
4596;DHT22;2310;49.978;8.742;2023-04-15T10:21:04;13.40;99.90
4596;DHT22;2310;49.978;8.742;2023-04-15T10:25:06;13.40;99.90
4596;DHT22;2310;49.978;8.742;2023-04-15T10:29:08;13.30;99.90
4596;DHT22;2310;49.978;8.742;2023-04-15T10:33:10;13.30;99.90
4596;DHT22;2310;49.978;8.742;2023-04-15T10:37:19;13.70;99.90
4596;DHT22;2310;49.978;8.742;2023-04-15T10:41:20;13.50;99.90
4596;DHT22;2310;49.978;8.742;2023-04-15T10:45:25;13.70;99.90
4596;DHT22;2310;49.978;8.742;2023-04-15T10:49:27;13.90;99.90
4596;DHT22;2310;49.978;8.742;2023-04-15T10:53:28;13.80;99.90
4596;DHT22;2310;49.978;8.742;2023-04-15T10:57:39;13.80;99.90
4596;DHT22;2310;49.978;8.742;2023-04-15T11:01:53;13.90;99.90
4596;DHT22;2310;49.978;8.742;2023-04-15T11:05:56;14.10;99.90
4596;DHT22;2310;49.978;8.742;2023-04-15T11:09:58;14.00;99.90
4596;DHT22;2310;49.978;8.742;2023-04-15T11:13:59;14.00;99.90
4596;DHT22;2310;49.978;8.742;2023-04-15T11:18:26;14.20;99.90
4596;DHT22;2310;49.978;8.742;2023-04-15T11:22:28;14.80;99.90
4596;DHT22;2310;49.978;8.742;2023-04-15T11:26:29;15.10;99.90
4596;DHT22;2310;49.978;8.742;2023-04-15T11:30:32;15.20;99.90
4596;DHT22;2310;49.978;8.742;2023-04-15T11:34:34;15.60;99.90
4596;DHT22;2310;49.978;8.742;2023-04-15T11:38:43;15.70;99.80
4596;DHT22;2310;49.978;8.742;2023-04-15T11:42:44;15.50;99.90
4596;DHT22;2310;49.978;8.742;2023-04-15T11:46:48;15.60;97.90
4596;DHT22;2310;49.978;8.742;2023-04-15T11:50:55;15.20;98.00
4596;DHT22;2310;49.978;8.742;2023-04-15T11:55:02;14.90;99.90
4596;DHT22;2310;49.978;8.742;2023-04-15T11:59:04;14.70;99.90
4596;DHT22;2310;49.978;8.742;2023-04-15T12:03:40;14.30;99.90
4596;DHT22;2310;49.978;8.742;2023-04-15T12:07:59;14.10;99.90
4596;DHT22;2310;49.978;8.742;2023-04-15T12:12:02;13.80;99.90
4596;DHT22;2310;49.978;8.742;2023-04-15T12:16:04;13.70;99.90
4596;DHT22;2310;49.978;8.742;2023-04-15T12:20:06;13.50;99.90
4596;DHT22;2310;49.978;8.742;2023-04-15T12:24:09;13.20;99.90
4596;DHT22;2310;49.978;8.742;2023-04-15T12:28:11;13.00;99.90
4596;DHT22;2310;49.978;8.742;2023-04-15T12:32:14;12.90;99.90
4596;DHT22;2310;49.978;8.742;2023-04-15T12:36:16;12.80;99.90
4596;DHT22;2310;49.978;8.742;2023-04-15T12:40:18;12.80;99.90
4596;DHT22;2310;49.978;8.742;2023-04-15T12:44:22;12.90;99.90
4596;DHT22;2310;49.978;8.742;2023-04-15T12:48:23;12.80;99.90
4596;DHT22;2310;49.978;8.742;2023-04-15T12:52:25;12.90;99.90
4596;DHT22;2310;49.978;8.742;2023-04-15T12:56:26;12.80;99.90
4596;DHT22;2310;49.978;8.742;2023-04-15T13:00:28;12.50;99.90
4596;DHT22;2310;49.978;8.742;2023-04-15T13:04:30;12.60;99.90
4596;DHT22;2310;49.978;8.742;2023-04-15T13:08:32;12.60;99.90
4596;DHT22;2310;49.978;8.742;2023-04-15T13:12:34;12.60;99.90
4596;DHT22;2310;49.978;8.742;2023-04-15T13:16:36;12.80;99.90
4596;DHT22;2310;49.978;8.742;2023-04-15T13:20:37;12.90;99.90
4596;DHT22;2310;49.978;8.742;2023-04-15T13:24:39;12.80;99.90
4596;DHT22;2310;49.978;8.742;2023-04-15T13:28:40;12.60;99.90
4596;DHT22;2310;49.978;8.742;2023-04-15T13:32:42;12.30;99.90
4596;DHT22;2310;49.978;8.742;2023-04-15T13:36:43;12.10;99.90
4596;DHT22;2310;49.978;8.742;2023-04-15T13:40:44;12.00;99.90
4596;DHT22;2310;49.978;8.742;2023-04-15T13:44:45;11.90;99.90
4596;DHT22;2310;49.978;8.742;2023-04-15T13:48:47;11.70;99.90
4596;DHT22;2310;49.978;8.742;2023-04-15T13:52:48;11.60;99.90
4596;DHT22;2310;49.978;8.742;2023-04-15T13:56:49;11.70;99.90
4596;DHT22;2310;49.978;8.742;2023-04-15T14:00:50;11.60;99.90
4596;DHT22;2310;49.978;8.742;2023-04-15T14:04:51;11.60;99.90
4596;DHT22;2310;49.978;8.742;2023-04-15T14:08:53;11.80;99.90
4596;DHT22;2310;49.978;8.742;2023-04-15T14:12:55;11.90;99.90
4596;DHT22;2310;49.978;8.742;2023-04-15T14:16:57;11.90;99.90
4596;DHT22;2310;49.978;8.742;2023-04-15T14:20:58;12.00;99.90
4596;DHT22;2310;49.978;8.742;2023-04-15T14:24:59;12.20;99.90
4596;DHT22;2310;49.978;8.742;2023-04-15T14:29:02;12.50;99.90
4596;DHT22;2310;49.978;8.742;2023-04-15T14:33:04;12.60;99.90
4596;DHT22;2310;49.978;8.742;2023-04-15T14:37:06;12.70;99.90
4596;DHT22;2310;49.978;8.742;2023-04-15T14:41:07;12.90;99.90
4596;DHT22;2310;49.978;8.742;2023-04-15T14:45:10;12.80;99.90
4596;DHT22;2310;49.978;8.742;2023-04-15T14:49:11;12.80;99.90
4596;DHT22;2310;49.978;8.742;2023-04-15T14:53:12;12.80;99.90
4596;DHT22;2310;49.978;8.742;2023-04-15T14:57:13;12.70;99.90
4596;DHT22;2310;49.978;8.742;2023-04-15T15:01:15;12.70;99.90
4596;DHT22;2310;49.978;8.742;2023-04-15T15:05:16;12.70;99.90
4596;DHT22;2310;49.978;8.742;2023-04-15T15:09:17;12.40;99.90
4596;DHT22;2310;49.978;8.742;2023-04-15T15:13:19;12.30;99.90
4596;DHT22;2310;49.978;8.742;2023-04-15T15:17:21;12.40;99.90
4596;DHT22;2310;49.978;8.742;2023-04-15T15:21:22;12.30;99.90
4596;DHT22;2310;49.978;8.742;2023-04-15T15:25:23;12.40;99.90
4596;DHT22;2310;49.978;8.742;2023-04-15T15:29:24;12.60;99.90
4596;DHT22;2310;49.978;8.742;2023-04-15T15:33:26;12.60;99.90
4596;DHT22;2310;49.978;8.742;2023-04-15T15:37:29;12.80;99.90
4596;DHT22;2310;49.978;8.742;2023-04-15T15:41:31;12.80;99.90
4596;DHT22;2310;49.978;8.742;2023-04-15T15:45:34;12.70;99.90
4596;DHT22;2310;49.978;8.742;2023-04-15T15:49:35;12.60;99.90
4596;DHT22;2310;49.978;8.742;2023-04-15T15:53:38;12.30;99.90
4596;DHT22;2310;49.978;8.742;2023-04-15T15:57:40;11.90;99.90
4596;DHT22;2310;49.978;8.742;2023-04-15T16:01:42;12.00;99.90
4596;DHT22;2310;49.978;8.742;2023-04-15T16:05:43;11.90;99.90
4596;DHT22;2310;49.978;8.742;2023-04-15T16:09:44;12.70;99.90
4596;DHT22;2310;49.978;8.742;2023-04-15T16:13:45;13.60;99.90
4596;DHT22;2310;49.978;8.742;2023-04-15T16:17:46;13.90;99.90
4596;DHT22;2310;49.978;8.742;2023-04-15T16:21:48;13.80;99.90
4596;DHT22;2310;49.978;8.742;2023-04-15T16:25:49;13.40;99.90
4596;DHT22;2310;49.978;8.742;2023-04-15T16:29:51;13.20;99.90
4596;DHT22;2310;49.978;8.742;2023-04-15T16:33:52;13.00;99.90
4596;DHT22;2310;49.978;8.742;2023-04-15T16:37:54;12.70;99.90
4596;DHT22;2310;49.978;8.742;2023-04-15T16:41:55;12.60;99.90
4596;DHT22;2310;49.978;8.742;2023-04-15T16:45:57;12.40;99.90
4596;DHT22;2310;49.978;8.742;2023-04-15T16:49:58;12.40;99.90
4596;DHT22;2310;49.978;8.742;2023-04-15T16:54:00;12.30;99.90
4596;DHT22;2310;49.978;8.742;2023-04-15T16:58:01;12.20;99.90
4596;DHT22;2310;49.978;8.742;2023-04-15T17:02:04;12.30;99.90
4596;DHT22;2310;49.978;8.742;2023-04-15T17:06:05;12.30;99.90
4596;DHT22;2310;49.978;8.742;2023-04-15T17:10:08;12.30;99.90
4596;DHT22;2310;49.978;8.742;2023-04-15T17:14:10;12.30;99.90
4596;DHT22;2310;49.978;8.742;2023-04-15T17:18:11;12.20;99.90
4596;DHT22;2310;49.978;8.742;2023-04-15T17:22:12;12.20;99.90
4596;DHT22;2310;49.978;8.742;2023-04-15T17:26:13;12.30;99.90
4596;DHT22;2310;49.978;8.742;2023-04-15T17:30:15;12.20;99.90
4596;DHT22;2310;49.978;8.742;2023-04-15T17:34:16;12.20;99.90
4596;DHT22;2310;49.978;8.742;2023-04-15T17:38:19;12.20;99.90
4596;DHT22;2310;49.978;8.742;2023-04-15T17:42:20;12.10;99.90
4596;DHT22;2310;49.978;8.742;2023-04-15T17:46:23;12.00;99.90
4596;DHT22;2310;49.978;8.742;2023-04-15T17:50:25;12.10;99.90
4596;DHT22;2310;49.978;8.742;2023-04-15T17:54:27;11.80;99.90
4596;DHT22;2310;49.978;8.742;2023-04-15T17:58:29;11.70;99.90
4596;DHT22;2310;49.978;8.742;2023-04-15T18:02:31;11.60;99.90
4596;DHT22;2310;49.978;8.742;2023-04-15T18:06:34;11.50;99.90
4596;DHT22;2310;49.978;8.742;2023-04-15T18:10:37;11.50;99.90
4596;DHT22;2310;49.978;8.742;2023-04-15T18:14:39;11.30;99.90
4596;DHT22;2310;49.978;8.742;2023-04-15T18:18:40;11.20;99.90
4596;DHT22;2310;49.978;8.742;2023-04-15T18:22:42;11.00;99.90
4596;DHT22;2310;49.978;8.742;2023-04-15T18:26:43;11.20;99.90
4596;DHT22;2310;49.978;8.742;2023-04-15T18:30:45;11.30;99.90
4596;DHT22;2310;49.978;8.742;2023-04-15T18:34:47;11.30;99.90
4596;DHT22;2310;49.978;8.742;2023-04-15T18:38:49;11.00;99.90
4596;DHT22;2310;49.978;8.742;2023-04-15T18:42:50;10.90;99.90
4596;DHT22;2310;49.978;8.742;2023-04-15T18:46:52;11.00;99.90
4596;DHT22;2310;49.978;8.742;2023-04-15T18:50:54;11.10;99.90
4596;DHT22;2310;49.978;8.742;2023-04-15T18:54:58;11.10;99.90
4596;DHT22;2310;49.978;8.742;2023-04-15T18:58:59;11.00;99.90
4596;DHT22;2310;49.978;8.742;2023-04-15T19:03:03;10.90;99.90
4596;DHT22;2310;49.978;8.742;2023-04-15T19:07:06;11.00;99.90
4596;DHT22;2310;49.978;8.742;2023-04-15T19:11:09;11.00;99.90
4596;DHT22;2310;49.978;8.742;2023-04-15T19:15:11;11.00;99.90
4596;DHT22;2310;49.978;8.742;2023-04-15T19:19:13;10.90;99.90
4596;DHT22;2310;49.978;8.742;2023-04-15T19:23:15;11.00;99.90
4596;DHT22;2310;49.978;8.742;2023-04-15T19:27:17;11.10;99.90
4596;DHT22;2310;49.978;8.742;2023-04-15T19:31:19;11.10;99.90
4596;DHT22;2310;49.978;8.742;2023-04-15T19:35:24;11.30;99.90
4596;DHT22;2310;49.978;8.742;2023-04-15T19:39:26;11.40;99.90
4596;DHT22;2310;49.978;8.742;2023-04-15T19:43:31;11.50;99.90
4596;DHT22;2310;49.978;8.742;2023-04-15T19:47:33;11.60;99.90
4596;DHT22;2310;49.978;8.742;2023-04-15T19:51:35;11.70;99.90
4596;DHT22;2310;49.978;8.742;2023-04-15T19:55:37;11.70;99.90
4596;DHT22;2310;49.978;8.742;2023-04-15T19:59:39;11.80;99.90
4596;DHT22;2310;49.978;8.742;2023-04-15T20:03:40;11.80;99.90
4596;DHT22;2310;49.978;8.742;2023-04-15T20:07:43;11.90;99.90
4596;DHT22;2310;49.978;8.742;2023-04-15T20:11:47;11.90;99.90
4596;DHT22;2310;49.978;8.742;2023-04-15T20:15:50;11.90;99.90
4596;DHT22;2310;49.978;8.742;2023-04-15T20:19:52;11.90;99.90
4596;DHT22;2310;49.978;8.742;2023-04-15T20:23:54;11.90;99.90
4596;DHT22;2310;49.978;8.742;2023-04-15T20:27:56;11.80;99.90
4596;DHT22;2310;49.978;8.742;2023-04-15T20:32:00;11.80;99.90
4596;DHT22;2310;49.978;8.742;2023-04-15T20:36:02;11.50;99.90
4596;DHT22;2310;49.978;8.742;2023-04-15T20:40:05;11.60;99.90
4596;DHT22;2310;49.978;8.742;2023-04-15T20:44:07;11.60;99.90
4596;DHT22;2310;49.978;8.742;2023-04-15T20:48:09;11.70;99.90
4596;DHT22;2310;49.978;8.742;2023-04-15T20:52:11;11.70;99.90
4596;DHT22;2310;49.978;8.742;2023-04-15T20:56:13;11.80;99.90
4596;DHT22;2310;49.978;8.742;2023-04-15T21:00:15;11.80;99.90
4596;DHT22;2310;49.978;8.742;2023-04-15T21:04:17;11.80;99.90
4596;DHT22;2310;49.978;8.742;2023-04-15T21:08:19;11.90;99.90
4596;DHT22;2310;49.978;8.742;2023-04-15T21:12:23;11.90;99.90
4596;DHT22;2310;49.978;8.742;2023-04-15T21:16:25;11.90;99.90
4596;DHT22;2310;49.978;8.742;2023-04-15T21:20:27;11.90;99.90
4596;DHT22;2310;49.978;8.742;2023-04-15T21:24:29;11.90;99.90
4596;DHT22;2310;49.978;8.742;2023-04-15T21:28:31;11.90;99.90
4596;DHT22;2310;49.978;8.742;2023-04-15T21:32:33;11.90;99.90
4596;DHT22;2310;49.978;8.742;2023-04-15T21:36:36;11.80;99.90
4596;DHT22;2310;49.978;8.742;2023-04-15T21:40:38;11.80;99.90
4596;DHT22;2310;49.978;8.742;2023-04-15T21:44:41;11.70;99.90
4596;DHT22;2310;49.978;8.742;2023-04-15T21:48:44;11.60;99.90
4596;DHT22;2310;49.978;8.742;2023-04-15T21:52:46;11.70;99.90
4596;DHT22;2310;49.978;8.742;2023-04-15T21:56:47;11.60;99.90
4596;DHT22;2310;49.978;8.742;2023-04-15T22:00:51;11.70;99.90
4596;DHT22;2310;49.978;8.742;2023-04-15T22:04:55;11.70;99.90
4596;DHT22;2310;49.978;8.742;2023-04-15T22:08:57;11.70;99.90
4596;DHT22;2310;49.978;8.742;2023-04-15T22:12:59;11.50;99.90
4596;DHT22;2310;49.978;8.742;2023-04-15T22:17:02;11.50;99.90
4596;DHT22;2310;49.978;8.742;2023-04-15T22:21:04;11.50;99.90
4596;DHT22;2310;49.978;8.742;2023-04-15T22:25:07;11.50;99.90
4596;DHT22;2310;49.978;8.742;2023-04-15T22:29:09;11.30;99.90
4596;DHT22;2310;49.978;8.742;2023-04-15T22:33:11;11.30;99.90
4596;DHT22;2310;49.978;8.742;2023-04-15T22:37:12;11.20;99.90
4596;DHT22;2310;49.978;8.742;2023-04-15T22:41:14;11.30;99.90
4596;DHT22;2310;49.978;8.742;2023-04-15T22:45:15;11.20;99.90
4596;DHT22;2310;49.978;8.742;2023-04-15T22:49:17;11.20;99.90
4596;DHT22;2310;49.978;8.742;2023-04-15T22:53:19;11.20;99.90
4596;DHT22;2310;49.978;8.742;2023-04-15T22:57:21;11.30;99.90
4596;DHT22;2310;49.978;8.742;2023-04-15T23:01:22;11.50;99.90
4596;DHT22;2310;49.978;8.742;2023-04-15T23:05:24;11.60;99.90
4596;DHT22;2310;49.978;8.742;2023-04-15T23:09:25;11.60;99.90
4596;DHT22;2310;49.978;8.742;2023-04-15T23:13:27;11.50;99.90
4596;DHT22;2310;49.978;8.742;2023-04-15T23:17:29;11.30;99.90
4596;DHT22;2310;49.978;8.742;2023-04-15T23:21:31;11.40;99.90
4596;DHT22;2310;49.978;8.742;2023-04-15T23:25:32;11.30;99.90
4596;DHT22;2310;49.978;8.742;2023-04-15T23:29:34;11.30;99.90
4596;DHT22;2310;49.978;8.742;2023-04-15T23:33:36;11.20;99.90
4596;DHT22;2310;49.978;8.742;2023-04-15T23:37:39;11.10;99.90
4596;DHT22;2310;49.978;8.742;2023-04-15T23:41:41;11.10;99.90
4596;DHT22;2310;49.978;8.742;2023-04-15T23:45:42;11.10;99.90
4596;DHT22;2310;49.978;8.742;2023-04-15T23:49:44;11.00;99.90
4596;DHT22;2310;49.978;8.742;2023-04-15T23:53:47;11.20;99.90
4596;DHT22;2310;49.978;8.742;2023-04-15T23:57:49;11.20;99.90
